createdAt,value
2018-07-23T00:00:19.137Z,24.53
2018-07-23T00:02:48.473Z,24.52
2018-07-23T00:05:17.748Z,24.53
2018-07-23T00:07:46.982Z,24.52
2018-07-23T00:10:16.470Z,24.51
2018-07-23T00:12:45.786Z,24.48
2018-07-23T00:15:15.146Z,24.46
2018-07-23T00:17:44.381Z,24.45
2018-07-23T00:20:13.694Z,24.45
2018-07-23T00:22:43.097Z,24.46
2018-07-23T00:25:12.395Z,24.48
2018-07-23T00:27:41.841Z,24.48
2018-07-23T00:30:11.170Z,24.47
2018-07-23T00:32:40.510Z,24.45
2018-07-23T00:35:10.828Z,24.45
2018-07-23T00:37:40.218Z,24.44
2018-07-23T00:40:09.737Z,24.42
2018-07-23T00:42:39.140Z,24.37
2018-07-23T00:45:09.022Z,24.29
2018-07-23T00:47:38.609Z,24.24
2018-07-23T00:50:07.938Z,24.23
2018-07-23T00:52:37.701Z,24.23
2018-07-23T00:55:06.940Z,24.21
2018-07-23T00:57:36.194Z,24.17
2018-07-23T01:00:05.545Z,24.15
2018-07-23T01:02:34.982Z,24.10
2018-07-23T01:05:04.242Z,24.01
2018-07-23T01:07:33.505Z,23.99
2018-07-23T01:10:02.741Z,24.00
2018-07-23T01:12:33.159Z,23.97
2018-07-23T01:15:02.499Z,23.91
2018-07-23T01:17:31.834Z,23.76
2018-07-23T01:20:01.235Z,23.68
2018-07-23T01:22:30.631Z,23.70
2018-07-23T01:24:59.966Z,23.70
2018-07-23T01:27:29.175Z,23.72
2018-07-23T01:29:58.402Z,23.63
2018-07-23T01:32:27.685Z,23.62
2018-07-23T01:34:57.031Z,23.56
2018-07-23T01:37:26.362Z,23.56
2018-07-23T01:39:55.713Z,23.52
2018-07-23T01:42:24.965Z,23.53
2018-07-23T01:44:54.314Z,23.54
2018-07-23T01:47:23.620Z,23.54
2018-07-23T01:49:53.012Z,23.53
2018-07-23T01:52:22.294Z,23.45
2018-07-23T01:54:51.749Z,23.47
2018-07-23T01:57:21.008Z,23.45
2018-07-23T01:59:50.331Z,23.39
2018-07-23T02:02:19.603Z,23.37
2018-07-23T02:04:49.333Z,23.35
2018-07-23T02:07:25.292Z,23.35
2018-07-23T02:09:54.595Z,23.33
2018-07-23T02:12:23.833Z,23.28
2018-07-23T02:14:53.081Z,23.23
2018-07-23T02:17:22.370Z,23.19
2018-07-23T02:19:51.715Z,23.18
2018-07-23T02:22:20.990Z,23.16
2018-07-23T02:24:50.312Z,23.10
2018-07-23T02:27:19.587Z,22.97
2018-07-23T02:29:48.913Z,23.01
2018-07-23T02:32:18.181Z,22.93
2018-07-23T02:34:47.158Z,22.93
2018-07-23T02:37:16.292Z,22.93
2018-07-23T02:39:45.258Z,22.90
2018-07-23T02:42:14.212Z,22.89
2018-07-23T02:44:43.250Z,22.81
2018-07-23T02:47:12.660Z,22.82
2018-07-23T02:49:41.650Z,22.83
2018-07-23T02:52:10.572Z,22.83
2018-07-23T02:54:39.549Z,22.82
2018-07-23T02:57:08.497Z,22.82
2018-07-23T02:59:37.518Z,22.82
2018-07-23T03:02:06.431Z,22.80
2018-07-23T03:04:35.410Z,22.80
2018-07-23T03:07:04.442Z,22.76
2018-07-23T03:09:33.450Z,22.74
2018-07-23T03:12:02.392Z,22.72
2018-07-23T03:14:31.373Z,22.67
2018-07-23T03:17:00.302Z,22.58
2018-07-23T03:19:29.353Z,22.55
2018-07-23T03:21:58.337Z,22.55
2018-07-23T03:24:27.340Z,22.58
2018-07-23T03:26:56.459Z,22.56
2018-07-23T03:29:25.759Z,22.57
2018-07-23T03:31:55.031Z,22.57
2018-07-23T03:34:24.284Z,22.57
2018-07-23T03:36:53.546Z,22.56
2018-07-23T03:39:22.865Z,22.54
2018-07-23T03:41:52.149Z,22.53
2018-07-23T03:44:21.573Z,22.51
2018-07-23T03:46:50.845Z,22.51
2018-07-23T03:49:20.065Z,22.53
2018-07-23T03:51:49.348Z,22.54
2018-07-23T03:54:18.762Z,22.52
2018-07-23T03:56:48.058Z,22.55
2018-07-23T03:59:17.367Z,22.55
2018-07-23T04:01:46.710Z,22.53
2018-07-23T04:04:17.758Z,22.52
2018-07-23T04:06:48.466Z,22.56
2018-07-23T04:09:18.171Z,22.59
2018-07-23T04:11:47.529Z,22.61
2018-07-23T04:14:16.999Z,22.64
2018-07-23T04:16:46.197Z,22.68
2018-07-23T04:19:16.062Z,22.72
2018-07-23T04:21:45.681Z,22.76
2018-07-23T04:24:15.694Z,22.76
2018-07-23T04:26:45.065Z,22.79
2018-07-23T04:29:14.408Z,22.81
2018-07-23T04:31:43.670Z,22.86
2018-07-23T04:34:13.094Z,22.93
2018-07-23T04:36:42.470Z,23.01
2018-07-23T04:39:11.700Z,23.08
2018-07-23T04:41:41.054Z,23.14
2018-07-23T04:44:10.290Z,23.22
2018-07-23T04:46:39.446Z,23.31
2018-07-23T04:49:08.856Z,23.36
2018-07-23T04:51:38.062Z,23.40
2018-07-23T04:54:07.310Z,23.43
2018-07-23T04:56:36.589Z,23.45
2018-07-23T04:59:06.018Z,23.58
2018-07-23T05:01:35.329Z,23.65
2018-07-23T05:04:04.703Z,23.81
2018-07-23T05:06:33.909Z,23.95
2018-07-23T05:09:03.243Z,24.07
2018-07-23T05:11:32.525Z,24.15
2018-07-23T05:14:02.074Z,24.31
2018-07-23T05:16:31.309Z,24.43
2018-07-23T05:19:00.691Z,24.58
2018-07-23T05:21:30.132Z,24.60
2018-07-23T05:24:00.346Z,24.79
2018-07-23T05:26:29.846Z,24.86
2018-07-23T05:28:59.114Z,24.90
2018-07-23T05:31:28.593Z,25.07
2018-07-23T05:33:58.173Z,25.19
2018-07-23T05:36:27.674Z,25.33
2018-07-23T05:38:57.069Z,25.30
2018-07-23T05:41:27.744Z,25.47
2018-07-23T05:43:57.326Z,25.72
2018-07-23T05:46:26.702Z,26.01
2018-07-23T05:48:56.360Z,26.42
2018-07-23T05:51:25.610Z,26.49
2018-07-23T05:53:54.801Z,26.67
2018-07-23T05:56:23.976Z,26.67
2018-07-23T05:58:53.281Z,26.93
2018-07-23T06:01:22.557Z,27.18
2018-07-23T06:03:51.889Z,27.33
2018-07-23T06:06:21.388Z,27.35
2018-07-23T06:08:50.494Z,27.53
2018-07-23T06:11:19.974Z,27.87
2018-07-23T06:13:49.099Z,28.16
2018-07-23T06:16:18.427Z,29.04
2018-07-23T06:18:47.725Z,29.74
2018-07-23T06:21:17.130Z,29.96
2018-07-23T06:23:46.376Z,29.39
2018-07-23T06:26:15.620Z,29.01
2018-07-23T06:28:45.314Z,29.25
2018-07-23T06:31:14.990Z,29.49
2018-07-23T06:33:44.472Z,29.52
2018-07-23T06:36:14.491Z,29.77
2018-07-23T06:38:44.219Z,29.80
2018-07-23T06:41:13.815Z,29.88
2018-07-23T06:43:43.628Z,30.21
2018-07-23T06:46:13.291Z,30.44
2018-07-23T06:48:42.531Z,30.69
2018-07-23T06:51:11.922Z,31.06
2018-07-23T06:53:41.202Z,31.32
2018-07-23T06:56:10.566Z,31.40
2018-07-23T06:58:39.758Z,32.00
2018-07-23T07:01:09.006Z,32.06
2018-07-23T07:03:38.305Z,31.86
2018-07-23T07:06:08.399Z,31.83
2018-07-23T07:08:37.751Z,31.70
2018-07-23T07:11:06.960Z,32.02
2018-07-23T07:13:36.276Z,32.10
2018-07-23T07:16:05.610Z,31.87
2018-07-23T07:18:34.831Z,32.20
2018-07-23T07:21:04.152Z,31.56
2018-07-23T07:23:33.411Z,31.68
2018-07-23T07:26:02.859Z,31.99
2018-07-23T07:28:32.231Z,31.92
2018-07-23T07:31:01.517Z,32.36
2018-07-23T07:33:30.813Z,32.57
2018-07-23T07:36:00.031Z,32.72
2018-07-23T07:38:29.295Z,32.61
2018-07-23T07:40:58.737Z,32.20
2018-07-23T07:43:28.022Z,32.42
2018-07-23T07:45:57.382Z,31.98
2018-07-23T07:48:26.569Z,31.82
2018-07-23T07:50:56.042Z,31.86
2018-07-23T07:53:25.340Z,31.98
2018-07-23T07:55:54.530Z,31.84
2018-07-23T07:58:23.801Z,31.98
2018-07-23T08:00:53.042Z,32.40
2018-07-23T08:03:22.291Z,32.60
2018-07-23T08:05:51.550Z,32.94
2018-07-23T08:08:21.014Z,33.32
2018-07-23T08:10:50.239Z,33.64
2018-07-23T08:13:19.496Z,33.17
2018-07-23T08:15:48.761Z,33.67
2018-07-23T08:18:17.974Z,33.55
2018-07-23T08:20:47.344Z,33.89
2018-07-23T08:23:16.650Z,34.35
2018-07-23T08:25:46.046Z,34.71
2018-07-23T08:28:15.632Z,34.56
2018-07-23T08:30:44.918Z,34.36
2018-07-23T08:33:14.283Z,34.69
2018-07-23T08:35:43.602Z,34.53
2018-07-23T08:38:13.049Z,34.81
2018-07-23T08:40:42.434Z,34.62
2018-07-23T08:43:12.359Z,34.48
2018-07-23T08:45:41.651Z,34.62
2018-07-23T08:48:10.920Z,34.94
2018-07-23T08:50:39.846Z,35.06
2018-07-23T08:53:08.845Z,35.64
2018-07-23T08:55:37.825Z,36.10
2018-07-23T08:58:07.549Z,36.11
2018-07-23T09:00:36.482Z,35.76
2018-07-23T09:03:05.889Z,35.77
2018-07-23T09:05:35.243Z,36.26
2018-07-23T09:08:04.903Z,36.35
2018-07-23T09:10:34.134Z,36.26
2018-07-23T09:13:03.383Z,36.67
2018-07-23T09:15:32.641Z,36.66
2018-07-23T09:18:01.937Z,36.37
2018-07-23T09:20:31.153Z,34.15
2018-07-23T09:23:00.530Z,35.07
2018-07-23T09:25:34.714Z,35.98
2018-07-23T09:28:04.010Z,35.50
2018-07-23T09:30:38.217Z,35.82
2018-07-23T09:33:07.511Z,33.81
2018-07-23T09:35:36.699Z,34.52
2018-07-23T09:38:05.986Z,34.96
2018-07-23T09:40:35.295Z,35.25
2018-07-23T09:43:04.859Z,34.16
2018-07-23T09:45:34.133Z,33.25
2018-07-23T09:48:03.401Z,33.62
2018-07-23T09:50:32.674Z,34.27
2018-07-23T09:53:02.384Z,34.66
2018-07-23T09:55:31.585Z,34.06
2018-07-23T09:58:00.833Z,33.40
2018-07-23T10:00:35.222Z,33.70
2018-07-23T10:03:04.473Z,32.94
2018-07-23T10:05:33.715Z,34.45
2018-07-23T10:08:03.053Z,35.03
2018-07-23T10:10:32.410Z,35.56
2018-07-23T10:13:01.696Z,35.72
2018-07-23T10:15:30.915Z,35.97
2018-07-23T10:18:03.255Z,36.33
2018-07-23T10:20:32.705Z,36.54
2018-07-23T10:23:02.024Z,36.66
2018-07-23T10:25:31.263Z,37.12
2018-07-23T10:28:00.618Z,36.59
2018-07-23T10:30:29.858Z,36.42
2018-07-23T10:32:59.124Z,36.59
2018-07-23T10:35:28.290Z,36.22
2018-07-23T10:37:57.737Z,36.76
2018-07-23T10:40:26.958Z,37.49
2018-07-23T10:42:56.614Z,38.36
2018-07-23T10:45:25.853Z,37.99
2018-07-23T10:47:55.132Z,37.68
2018-07-23T10:50:24.755Z,36.07
2018-07-23T10:52:54.101Z,35.54
2018-07-23T10:55:23.426Z,36.94
2018-07-23T10:57:53.035Z,37.61
2018-07-23T11:00:22.410Z,37.34
2018-07-23T11:02:51.743Z,37.36
2018-07-23T11:05:22.089Z,36.89
2018-07-23T11:07:51.217Z,35.89
2018-07-23T11:10:20.470Z,36.18
2018-07-23T11:12:49.639Z,36.29
2018-07-23T11:15:18.733Z,37.36
2018-07-23T11:17:47.876Z,36.87
2018-07-23T11:20:16.994Z,36.41
2018-07-23T11:22:46.099Z,35.48
2018-07-23T11:25:38.503Z,36.08
2018-07-23T11:27:45.020Z,36.72
2018-07-23T11:30:14.557Z,37.17
2018-07-23T11:32:43.868Z,37.24
2018-07-23T11:35:13.243Z,37.97
2018-07-23T11:37:42.563Z,37.91
2018-07-23T11:40:11.944Z,37.39
2018-07-23T11:42:41.387Z,36.97
2018-07-23T11:45:10.715Z,35.43
2018-07-23T11:47:39.997Z,36.64
2018-07-23T11:50:09.404Z,37.44
2018-07-23T11:52:38.682Z,37.87
2018-07-23T11:55:07.928Z,37.71
2018-07-23T11:57:37.382Z,37.42
2018-07-23T12:00:06.659Z,38.07
2018-07-23T12:02:36.090Z,38.51
2018-07-23T12:05:05.250Z,37.93
2018-07-23T12:07:34.498Z,37.71
2018-07-23T12:10:03.743Z,37.04
2018-07-23T12:12:32.882Z,36.91
2018-07-23T12:15:02.182Z,36.94
2018-07-23T12:17:31.587Z,37.47
2018-07-23T12:20:00.843Z,36.56
2018-07-23T12:22:30.499Z,37.68
2018-07-23T12:24:59.798Z,37.95
2018-07-23T12:27:29.102Z,37.87
2018-07-23T12:29:58.258Z,35.97
2018-07-23T12:32:27.518Z,36.91
2018-07-23T12:34:56.899Z,36.54
2018-07-23T12:37:26.174Z,36.68
2018-07-23T12:39:55.517Z,36.70
2018-07-23T12:42:24.865Z,36.52
2018-07-23T12:44:54.082Z,37.26
2018-07-23T12:47:23.402Z,38.24
2018-07-23T12:49:52.714Z,38.69
2018-07-23T12:52:22.053Z,38.32
2018-07-23T12:54:51.413Z,38.88
2018-07-23T12:57:20.662Z,38.85
2018-07-23T12:59:49.901Z,39.14
2018-07-23T13:02:19.272Z,37.90
2018-07-23T13:04:48.505Z,37.87
2018-07-23T13:07:17.749Z,37.66
2018-07-23T13:09:47.401Z,37.05
2018-07-23T13:12:16.693Z,37.95
2018-07-23T13:14:45.992Z,38.15
2018-07-23T13:17:15.390Z,37.13
2018-07-23T13:19:44.753Z,36.82
2018-07-23T13:22:14.018Z,37.07
2018-07-23T13:24:43.342Z,36.35
2018-07-23T13:27:12.767Z,37.30
2018-07-23T13:29:42.006Z,37.88
2018-07-23T13:32:11.746Z,38.20
2018-07-23T13:34:41.022Z,38.62
2018-07-23T13:37:10.703Z,38.81
2018-07-23T13:39:39.985Z,38.90
2018-07-23T13:42:09.200Z,38.76
2018-07-23T13:44:38.346Z,38.98
2018-07-23T13:47:07.762Z,38.58
2018-07-23T13:49:37.161Z,39.10
2018-07-23T13:52:06.410Z,38.92
2018-07-23T13:54:35.669Z,38.72
2018-07-23T13:57:05.029Z,38.71
2018-07-23T13:59:34.467Z,38.23
2018-07-23T14:02:03.751Z,38.51
2018-07-23T14:04:33.031Z,37.83
2018-07-23T14:07:02.209Z,38.05
2018-07-23T14:09:31.470Z,38.16
2018-07-23T14:12:00.716Z,38.35
2018-07-23T14:14:29.946Z,38.04
2018-07-23T14:16:59.294Z,38.26
2018-07-23T14:19:28.545Z,38.51
2018-07-23T14:21:57.820Z,38.54
2018-07-23T14:24:27.170Z,38.75
2018-07-23T14:26:56.465Z,38.47
2018-07-23T14:29:25.846Z,37.77
2018-07-23T14:31:55.140Z,38.15
2018-07-23T14:34:24.700Z,38.29
2018-07-23T14:36:53.956Z,37.68
2018-07-23T14:39:23.286Z,36.53
2018-07-23T14:41:52.662Z,36.25
2018-07-23T14:44:22.064Z,36.63
2018-07-23T14:46:51.420Z,36.87
2018-07-23T14:49:20.790Z,36.93
2018-07-23T14:51:50.034Z,37.26
2018-07-23T14:54:19.462Z,37.56
2018-07-23T14:56:48.610Z,37.60
2018-07-23T14:59:18.083Z,37.34
2018-07-23T15:01:47.351Z,37.20
2018-07-23T15:04:16.784Z,37.11
2018-07-23T15:06:46.178Z,37.26
2018-07-23T15:09:15.490Z,37.24
2018-07-23T15:11:44.770Z,37.09
2018-07-23T15:14:14.073Z,37.30
2018-07-23T15:16:43.224Z,36.96
2018-07-23T15:19:12.591Z,37.01
2018-07-23T15:21:41.862Z,36.94
2018-07-23T15:24:11.114Z,36.96
2018-07-23T15:26:40.372Z,36.54
2018-07-23T15:29:09.690Z,36.54
2018-07-23T15:31:38.981Z,36.55
2018-07-23T15:34:08.159Z,36.59
2018-07-23T15:36:37.421Z,36.51
2018-07-23T15:39:08.881Z,36.45
2018-07-23T15:41:38.342Z,36.32
2018-07-23T15:44:07.832Z,36.15
2018-07-23T15:46:36.986Z,35.92
2018-07-23T15:49:06.460Z,35.87
2018-07-23T15:51:35.699Z,35.49
2018-07-23T15:54:04.944Z,35.53
2018-07-23T15:56:34.225Z,35.46
2018-07-23T15:59:03.593Z,35.01
2018-07-23T16:01:32.905Z,34.86
2018-07-23T16:04:02.263Z,34.91
2018-07-23T16:06:31.670Z,34.87
2018-07-23T16:09:00.925Z,34.88
2018-07-23T16:11:30.245Z,35.01
2018-07-23T16:13:59.611Z,35.18
2018-07-23T16:16:28.936Z,35.40
2018-07-23T16:18:58.288Z,35.52
2018-07-23T16:21:27.585Z,35.56
2018-07-23T16:23:56.851Z,35.60
2018-07-23T16:26:26.272Z,35.62
2018-07-23T16:28:55.560Z,35.44
2018-07-23T16:31:24.845Z,35.42
2018-07-23T16:33:54.113Z,35.58
2018-07-23T16:36:23.443Z,35.75
2018-07-23T16:38:52.639Z,35.72
2018-07-23T16:41:21.870Z,35.87
2018-07-23T16:43:51.159Z,36.03
2018-07-23T16:46:20.510Z,35.84
2018-07-23T16:48:49.809Z,35.87
2018-07-23T16:51:19.063Z,36.06
2018-07-23T16:53:48.270Z,36.04
2018-07-23T16:56:17.530Z,35.93
2018-07-23T16:58:46.748Z,35.88
2018-07-23T17:01:16.156Z,35.78
2018-07-23T17:03:45.361Z,35.68
2018-07-23T17:06:14.796Z,35.73
2018-07-23T17:08:44.059Z,35.31
2018-07-23T17:11:13.458Z,35.11
2018-07-23T17:13:42.759Z,35.06
2018-07-23T17:16:12.320Z,35.14
2018-07-23T17:18:41.548Z,35.20
2018-07-23T17:21:11.359Z,34.99
2018-07-23T17:23:40.772Z,35.05
2018-07-23T17:26:10.012Z,34.98
2018-07-23T17:28:39.330Z,34.96
2018-07-23T17:31:09.138Z,34.91
2018-07-23T17:33:38.473Z,34.93
2018-07-23T17:36:07.837Z,34.85
2018-07-23T17:38:37.071Z,34.58
2018-07-23T17:41:06.322Z,34.60
2018-07-23T17:43:36.040Z,34.65
2018-07-23T17:46:05.317Z,34.60
2018-07-23T17:48:34.606Z,34.45
2018-07-23T17:51:04.004Z,34.32
2018-07-23T17:53:33.263Z,34.38
2018-07-23T17:56:02.922Z,34.33
2018-07-23T17:58:32.330Z,34.30
2018-07-23T18:01:01.689Z,34.16
2018-07-23T18:03:31.129Z,33.99
2018-07-23T18:06:00.542Z,34.07
2018-07-23T18:08:30.007Z,34.13
2018-07-23T18:10:59.341Z,34.15
2018-07-23T18:13:28.738Z,34.15
2018-07-23T18:15:58.845Z,34.11
2018-07-23T18:18:28.301Z,34.09
2018-07-23T18:20:58.037Z,34.06
2018-07-23T18:23:27.553Z,34.01
2018-07-23T18:25:56.991Z,33.97
2018-07-23T18:28:26.492Z,33.92
2018-07-23T18:30:55.825Z,33.86
2018-07-23T18:33:25.057Z,33.82
2018-07-23T18:35:54.484Z,33.77
2018-07-23T18:38:23.853Z,33.72
2018-07-23T18:40:53.147Z,33.66
2018-07-23T18:43:22.502Z,33.62
2018-07-23T18:45:51.781Z,33.58
2018-07-23T18:49:31.763Z,33.52
2018-07-23T18:52:01.080Z,33.46
2018-07-23T18:54:31.411Z,33.36
2018-07-23T18:57:01.870Z,33.31
2018-07-23T18:59:31.238Z,33.24
2018-07-23T19:02:01.384Z,33.22
2018-07-23T19:04:30.521Z,33.17
2018-07-23T19:06:59.949Z,33.10
2018-07-23T19:09:29.856Z,33.01
2018-07-23T19:11:59.725Z,32.93
2018-07-23T19:14:29.165Z,32.84
2018-07-23T19:16:59.339Z,32.71
2018-07-23T19:19:28.636Z,32.63
2018-07-23T19:21:57.898Z,32.53
2018-07-23T19:24:27.050Z,32.43
2018-07-23T19:26:56.386Z,32.34
2018-07-23T19:29:25.672Z,32.25
2018-07-23T19:31:54.995Z,32.14
2018-07-23T19:34:24.255Z,31.97
2018-07-23T19:36:53.510Z,31.66
2018-07-23T19:39:22.893Z,31.51
2018-07-23T19:41:52.234Z,31.17
2018-07-23T19:44:21.492Z,30.93
2018-07-23T19:46:50.890Z,30.40
2018-07-23T19:49:20.066Z,30.09
2018-07-23T19:51:49.297Z,30.32
2018-07-23T19:54:18.585Z,30.47
2018-07-23T19:56:47.702Z,30.38
2018-07-23T19:59:16.999Z,30.10
2018-07-23T20:01:46.391Z,29.98
2018-07-23T20:04:15.637Z,29.92
2018-07-23T20:06:45.041Z,30.11
2018-07-23T20:09:14.300Z,30.22
2018-07-23T20:11:43.570Z,30.29
2018-07-23T20:14:12.838Z,30.33
2018-07-23T20:16:42.190Z,30.33
2018-07-23T20:19:11.558Z,30.34
2018-07-23T20:21:40.943Z,30.34
2018-07-23T20:24:10.058Z,30.33
2018-07-23T20:26:39.281Z,30.22
2018-07-23T20:29:08.790Z,30.18
2018-07-23T20:31:38.109Z,30.17
2018-07-23T20:34:07.370Z,30.14
2018-07-23T20:36:36.845Z,30.08
2018-07-23T20:39:07.847Z,29.91
2018-07-23T20:41:37.146Z,29.80
2018-07-23T20:44:06.409Z,29.74
2018-07-23T20:46:35.622Z,29.67
2018-07-23T20:49:04.847Z,29.70
2018-07-23T20:51:34.517Z,29.69
2018-07-23T20:54:03.737Z,29.69
2018-07-23T20:56:33.078Z,29.67
2018-07-23T20:59:02.077Z,29.54
2018-07-23T21:01:31.022Z,29.46
2018-07-23T21:04:00.355Z,29.40
2018-07-23T21:06:29.347Z,29.40
2018-07-23T21:08:58.258Z,29.43
2018-07-23T21:11:27.210Z,29.42
2018-07-23T21:13:56.489Z,29.41
2018-07-23T21:16:25.730Z,29.41
2018-07-23T21:18:55.422Z,29.39
2018-07-23T21:21:24.742Z,29.36
2018-07-23T21:23:54.117Z,29.32
2018-07-23T21:26:23.597Z,29.30
2018-07-23T21:28:52.950Z,29.24
2018-07-23T21:31:22.640Z,29.16
2018-07-23T21:33:52.057Z,29.12
2018-07-23T21:36:21.338Z,28.97
2018-07-23T21:38:50.645Z,28.84
2018-07-23T21:41:19.905Z,28.72
2018-07-23T21:43:49.157Z,28.69
2018-07-23T21:46:18.423Z,28.66
2018-07-23T21:48:48.045Z,28.65
2018-07-23T21:51:17.353Z,28.61
2018-07-23T21:53:46.682Z,28.58
2018-07-23T21:56:15.940Z,28.61
2018-07-23T21:58:45.137Z,28.56
2018-07-23T22:01:14.298Z,28.51
2018-07-23T22:03:43.550Z,28.49
2018-07-23T22:06:12.905Z,28.45
2018-07-23T22:08:42.142Z,28.42
2018-07-23T22:11:11.447Z,28.34
2018-07-23T22:13:40.751Z,28.35
2018-07-23T22:16:10.110Z,28.36
2018-07-23T22:18:39.353Z,28.30
2018-07-23T22:21:09.280Z,28.25
2018-07-23T22:23:38.591Z,28.20
2018-07-23T22:26:07.937Z,28.18
2018-07-23T22:28:37.374Z,28.15
2018-07-23T22:31:06.618Z,28.13
2018-07-23T22:33:35.981Z,28.12
2018-07-23T22:36:05.252Z,28.09
2018-07-23T22:38:34.482Z,28.05
2018-07-23T22:41:03.818Z,28.00
2018-07-23T22:43:33.274Z,27.97
2018-07-23T22:46:02.434Z,27.94
2018-07-23T22:48:31.830Z,27.91
2018-07-23T22:51:01.039Z,27.89
2018-07-23T22:53:30.261Z,27.85
2018-07-23T22:55:59.625Z,27.67
2018-07-23T22:58:28.858Z,27.48
2018-07-23T23:00:58.015Z,27.37
2018-07-23T23:03:27.281Z,27.42
2018-07-23T23:05:56.538Z,27.46
2018-07-23T23:08:25.765Z,27.49
2018-07-23T23:10:55.019Z,27.44
2018-07-23T23:13:24.362Z,27.39
2018-07-23T23:15:53.522Z,27.38
2018-07-23T23:18:22.845Z,27.35
2018-07-23T23:20:52.179Z,27.32
2018-07-23T23:23:21.501Z,27.31
2018-07-23T23:25:50.846Z,27.27
2018-07-23T23:28:20.050Z,27.28
2018-07-23T23:30:49.274Z,27.26
2018-07-23T23:33:18.523Z,27.24
2018-07-23T23:35:48.183Z,27.22
2018-07-23T23:38:17.481Z,27.21
2018-07-23T23:40:46.814Z,27.21
2018-07-23T23:43:16.154Z,27.20
2018-07-23T23:45:45.397Z,27.10
2018-07-23T23:48:14.773Z,27.11
2018-07-23T23:50:44.009Z,27.05
2018-07-23T23:53:13.377Z,27.03
2018-07-23T23:55:42.701Z,27.01
2018-07-23T23:58:11.952Z,26.95
